CheckWX is a tool to help pilots better visualize weather data.  It is not intended as a substitute for an official pre-flight weather briefing.

12:42:08 UTC

KTTN METAR
Trenton Mercer Airport
Trenton, New Jersey, USA
Current

49 mins ago

KTTN 051153Z 22006KT 4SM BR OVC060 08/07 A3005 RMK AO2 SLP171 T00780067 10078 20050 53008
Observed
Apr-5 @ 11:53 UTC
Wind
  • 220° at 6 KTS
Visibility
Flight Rules
MVFR
Conditions
Mist
Cloud Levels
  • Overcast at 6,000' AGL
Temperature
C / 46°F
Dewpoint
C / 45°F
Humidity
93%
Altimeter
30.05" Hg
Pressure
1017.62 hPa
Previous

1 hour ago

KTTN 051135Z 24004KT 4SM BR OVC060 07/06 A3005 RMK AO2 T00720061
Observed
Apr-5 @ 11:35 UTC
Wind
  • 240° at 4 KTS
Visibility
Flight Rules
MVFR
Conditions
Mist
Cloud Levels
  • Overcast at 6,000' AGL
Temperature
C / 45°F
Dewpoint
C / 43°F
Humidity
93%
Altimeter
30.05" Hg
Pressure
1017.62 hPa
Previous

1 hour ago

KTTN 051123Z 22006KT 2 1/2SM BR OVC055 06/06 A3004 RMK AO2 T00610056
Observed
Apr-5 @ 11:23 UTC
Wind
  • 220° at 6 KTS
Visibility
Flight Rules
IFR
Conditions
Mist
Cloud Levels
  • Overcast at 5,500' AGL
Temperature
C / 43°F
Dewpoint
C / 43°F
Humidity
100%
Altimeter
30.04" Hg
Pressure
1017.32 hPa